Time;durP1;ratioP1;P1;durP2;ratioP2;P2;SDS_P1;SDS_P2;PMS_P1;PMS_P2;Temp;Humidity;BMP_temperature;BMP_pressure;BME280_temperature;BME280_humidity;BME280_pressure;Samples;Min_cycle;Max_cycle;Signal;HPM_P1;HPM_P2
2023/10/02 00:00:39;;;;;;;21.60;8.50;;;;;;;;;;5029362;28;20525;-86
2023/10/02 00:03:47;;;;;;;20.93;8.77;;;;;;;;;;4995084;28;20539;-86
2023/10/02 00:07:08;;;;;;;24.57;9.33;;;;;;;;;;5041788;28;20568;-86
2023/10/02 00:10:15;;;;;;;19.03;8.33;;;;;;;;;;5030081;28;20183;-86
2023/10/02 00:13:21;;;;;;;16.57;8.90;;;;;;;;;;4994967;28;20182;-86
2023/10/02 00:16:31;;;;;;;22.73;9.23;;;;;;;;;;4994389;28;20651;-86
2023/10/02 00:19:36;;;;;;;21.23;8.67;;;;;;;;;;5041502;28;20179;-87
2023/10/02 00:22:43;;;;;;;17.70;8.43;;;;;;;;;;4971985;28;20210;-87
2023/10/02 00:25:52;;;;;;;18.23;8.93;;;;;;;;;;4983144;28;20174;-86
2023/10/02 00:28:59;;;;;;;19.17;9.40;;;;;;;;;;5029645;28;20214;-85
2023/10/02 00:32:11;;;;;;;21.23;9.00;;;;;;;;;;5029673;28;20182;-86
2023/10/02 00:35:15;;;;;;;17.73;9.03;;;;;;;;;;5041345;28;20643;-86
2023/10/02 00:38:19;;;;;;;17.57;8.37;;;;;;;;;;5029418;28;20214;-86
2023/10/02 00:41:23;;;;;;;18.47;8.73;;;;;;;;;;4994299;28;20575;-86
2023/10/02 00:44:51;;;;;;;22.20;8.27;;;;;;;;;;5028937;28;20178;-86
2023/10/02 00:47:53;;;;;;;17.43;8.30;;;;;;;;;;5040810;28;20694;-86
2023/10/02 00:51:00;;;;;;;17.07;7.93;;;;;;;;;;5040445;28;20178;-86
2023/10/02 00:54:23;;;;;;;18.53;9.07;;;;;;;;;;4994210;28;20182;-87
2023/10/02 00:57:28;;;;;;;17.00;9.10;;;;;;;;;;5040835;28;20221;-88
2023/10/02 01:00:37;;;;;;;19.57;9.20;;;;;;;;;;5029270;28;20178;-87
2023/10/02 01:04:08;;;;;;;17.07;9.03;;;;;;;;;;5041023;28;20179;-87
2023/10/02 01:07:07;;;;;;;19.53;9.87;;;;;;;;;;5040175;28;20218;-88
2023/10/02 01:10:18;;;;;;;17.63;8.20;;;;;;;;;;5044456;28;20190;-87
2023/10/02 01:13:34;;;;;;;20.27;10.07;;;;;;;;;;5033217;28;20639;-87
2023/10/02 01:16:50;;;;;;;17.67;9.10;;;;;;;;;;5044398;28;20189;-88
2023/10/02 01:19:57;;;;;;;21.53;9.73;;;;;;;;;;5032992;28;20179;-88
2023/10/02 01:23:17;;;;;;;21.47;10.37;;;;;;;;;;4997509;28;20210;-87
2023/10/02 01:26:22;;;;;;;20.67;10.20;;;;;;;;;;5032703;28;20194;-87
2023/10/02 01:29:27;;;;;;;20.47;9.13;;;;;;;;;;5043443;28;20209;-87
2023/10/02 01:32:31;;;;;;;22.23;9.50;;;;;;;;;;5043418;28;20178;-87
2023/10/02 01:35:38;;;;;;;18.27;9.10;;;;;;;;;;5032090;28;20187;-88
2023/10/02 01:38:44;;;;;;;21.30;9.50;;;;;;;;;;5031489;28;20702;-88
2023/10/02 01:41:54;;;;;;;17.03;9.10;;;;;;;;;;4973443;28;20202;-87
2023/10/02 01:44:59;;;;;;;18.13;9.47;;;;;;;;;;4996825;28;20182;-88
2023/10/02 01:48:07;;;;;;;20.60;9.43;;;;;;;;;;5020885;28;20214;-87
2023/10/02 01:51:20;;;;;;;22.53;9.47;;;;;;;;;;5031399;28;20186;-87
2023/10/02 01:54:31;;;;;;;21.87;10.10;;;;;;;;;;5042853;28;20182;-87
2023/10/02 01:57:35;;;;;;;19.70;9.60;;;;;;;;;;4984937;28;20229;-87
2023/10/02 02:00:40;;;;;;;22.37;10.47;;;;;;;;;;5043296;28;20178;-87
2023/10/02 02:03:48;;;;;;;23.50;10.07;;;;;;;;;;4996517;28;20185;-86
2023/10/02 02:06:56;;;;;;;24.80;10.07;;;;;;;;;;5031926;28;20217;-86
2023/10/02 02:10:01;;;;;;;19.43;9.23;;;;;;;;;;4984595;28;20659;-86
2023/10/02 02:13:06;;;;;;;21.20;10.03;;;;;;;;;;5042660;28;20186;-86
2023/10/02 02:16:16;;;;;;;21.03;10.70;;;;;;;;;;5030999;28;20193;-87
2023/10/02 02:19:23;;;;;;;23.90;9.43;;;;;;;;;;5042753;28;20198;-87
2023/10/02 02:22:31;;;;;;;17.73;9.20;;;;;;;;;;4995858;28;20206;-86
2023/10/02 02:25:35;;;;;;;20.87;10.20;;;;;;;;;;5042518;28;20194;-87
2023/10/02 02:28:45;;;;;;;20.17;9.87;;;;;;;;;;5018641;28;20716;-87
2023/10/02 02:31:50;;;;;;;22.03;10.40;;;;;;;;;;5041950;28;20179;-87
2023/10/02 02:35:00;;;;;;;20.70;9.80;;;;;;;;;;5030739;28;20186;-86
2023/10/02 02:38:14;;;;;;;17.40;9.10;;;;;;;;;;5030892;28;20226;-87
2023/10/02 02:41:18;;;;;;;21.80;10.70;;;;;;;;;;4995725;28;20186;-87
2023/10/02 02:44:45;;;;;;;22.27;10.03;;;;;;;;;;5042079;28;20189;-86
2023/10/02 02:47:51;;;;;;;18.83;9.80;;;;;;;;;;5030681;28;20229;-87
2023/10/02 02:50:55;;;;;;;19.63;9.20;;;;;;;;;;4995706;28;20182;-86
2023/10/02 02:54:04;;;;;;;21.70;9.73;;;;;;;;;;4961435;28;20178;-87
2023/10/02 02:57:08;;;;;;;18.30;8.70;;;;;;;;;;5041980;28;20588;-87
2023/10/02 03:00:29;;;;;;;19.37;9.43;;;;;;;;;;5042012;28;20182;-86
2023/10/02 03:03:34;;;;;;;22.17;10.03;;;;;;;;;;5018787;28;20670;-87
2023/10/02 03:06:38;;;;;;;17.47;9.17;;;;;;;;;;5042082;28;20185;-86
2023/10/02 03:09:42;;;;;;;18.47;9.63;;;;;;;;;;4994687;28;20186;-86
2023/10/02 03:12:48;;;;;;;20.40;9.73;;;;;;;;;;4960982;28;20167;-87
2023/10/02 03:15:53;;;;;;;20.17;9.87;;;;;;;;;;5040686;28;20532;-87
2023/10/02 03:19:03;;;;;;;19.10;9.47;;;;;;;;;;4995155;28;20186;-87
2023/10/02 03:22:08;;;;;;;18.03;9.60;;;;;;;;;;5041955;28;20533;-87
2023/10/02 03:25:28;;;;;;;20.03;9.47;;;;;;;;;;5030638;28;20635;-86
2023/10/02 03:28:32;;;;;;;24.23;9.27;;;;;;;;;;5040518;28;20234;-86
2023/10/02 03:31:49;;;;;;;24.57;9.67;;;;;;;;;;5029582;28;20174;-87
2023/10/02 03:35:02;;;;;;;18.50;9.17;;;;;;;;;;5030464;28;20530;-87
2023/10/02 03:38:06;;;;;;;20.83;10.63;;;;;;;;;;5041695;28;20222;-86
2023/10/02 03:41:11;;;;;;;18.23;9.43;;;;;;;;;;5041214;28;20186;-86
2023/10/02 03:44:15;;;;;;;20.33;9.60;;;;;;;;;;5041521;28;20178;-85
2023/10/02 03:47:20;;;;;;;18.07;9.37;;;;;;;;;;5030079;28;20313;-86
2023/10/02 03:50:25;;;;;;;22.07;10.23;;;;;;;;;;4994601;28;20182;-87
2023/10/02 03:53:29;;;;;;;19.07;9.53;;;;;;;;;;5029684;28;20185;-86
2023/10/02 03:56:36;;;;;;;18.43;8.83;;;;;;;;;;5030031;28;20182;-86
2023/10/02 03:59:52;;;;;;;19.17;9.60;;;;;;;;;;4994468;28;20183;-86
2023/10/02 04:02:57;;;;;;;22.27;10.20;;;;;;;;;;4971449;28;20211;-86
2023/10/02 04:06:05;;;;;;;20.00;9.77;;;;;;;;;;5040854;28;20182;-86
2023/10/02 04:12:22;;;;;;;23.70;10.27;;;;;;;;;;5028616;28;20179;-86
2023/10/02 04:15:26;;;;;;;20.10;9.37;;;;;;;;;;5040549;28;20185;-87
2023/10/02 04:18:45;;;;;;;16.77;9.60;;;;;;;;;;5041189;28;20210;-87
2023/10/02 04:21:56;;;;;;;19.33;9.17;;;;;;;;;;5041044;28;20191;-86
2023/10/02 04:25:06;;;;;;;20.90;9.63;;;;;;;;;;4994799;28;20187;-87
2023/10/02 04:28:12;;;;;;;18.30;9.83;;;;;;;;;;4995515;28;20225;-86
2023/10/02 04:31:23;;;;;;;17.77;9.43;;;;;;;;;;5041223;28;20182;-86
2023/10/02 04:34:31;;;;;;;19.33;9.37;;;;;;;;;;5029820;28;20174;-86
2023/10/02 04:37:36;;;;;;;17.70;9.53;;;;;;;;;;4995064;28;20698;-87
2023/10/02 04:40:49;;;;;;;17.80;9.60;;;;;;;;;;4994864;28;20179;-87
2023/10/02 04:44:04;;;;;;;22.73;10.07;;;;;;;;;;5042282;28;20210;-86
2023/10/02 04:47:09;;;;;;;19.53;9.70;;;;;;;;;;5044694;28;20224;-86
2023/10/02 04:53:22;;;;;;;23.83;10.60;;;;;;;;;;5044442;28;20179;-87
2023/10/02 04:56:28;;;;;;;18.27;10.07;;;;;;;;;;5044445;28;20194;-86
2023/10/02 04:59:51;;;;;;;19.17;9.37;;;;;;;;;;5045057;28;20218;-87
2023/10/02 05:03:09;;;;;;;15.97;9.17;;;;;;;;;;5022353;28;20210;-87
2023/10/02 05:06:16;;;;;;;17.53;9.17;;;;;;;;;;5044875;28;20183;-88
2023/10/02 05:09:26;;;;;;;20.10;9.67;;;;;;;;;;5044436;28;20178;-86
2023/10/02 05:12:31;;;;;;;19.63;10.40;;;;;;;;;;5033961;28;20660;-86
2023/10/02 05:16:07;;;;;;;18.87;10.00;;;;;;;;;;5045880;28;20189;-87
2023/10/02 05:22:58;;;;;;;17.57;8.97;;;;;;;;;;4986148;28;20218;-86
2023/10/02 05:26:04;;;;;;;17.93;9.20;;;;;;;;;;5045398;28;20186;-87
2023/10/02 05:29:36;;;;;;;14.27;8.67;;;;;;;;;;5034189;28;20651;-86
2023/10/02 05:32:41;;;;;;;17.47;9.00;;;;;;;;;;4997117;28;20178;-86
2023/10/02 05:35:45;;;;;;;20.30;9.23;;;;;;;;;;5044123;28;20186;-86
2023/10/02 05:42:15;;;;;;;20.67;9.03;;;;;;;;;;4998572;28;20186;-86
2023/10/02 05:45:37;;;;;;;18.57;9.90;;;;;;;;;;5044130;28;20182;-86
2023/10/02 05:48:44;;;;;;;18.03;8.97;;;;;;;;;;5043876;28;20222;-86
2023/10/02 05:51:48;;;;;;;14.40;7.97;;;;;;;;;;5032120;28;20186;-87
2023/10/02 05:54:55;;;;;;;17.93;9.53;;;;;;;;;;5043674;28;20639;-87
2023/10/02 05:58:01;;;;;;;20.00;8.73;;;;;;;;;;5043492;28;20222;-87
2023/10/02 06:01:18;;;;;;;21.43;9.77;;;;;;;;;;4996678;28;20183;-87
2023/10/02 06:04:23;;;;;;;25.20;9.30;;;;;;;;;;5042831;28;20206;-86
2023/10/02 06:14:27;;;;;;;17.90;8.57;;;;;;;;;;5029476;28;20183;-87
2023/10/02 06:17:32;;;;;;;20.83;9.70;;;;;;;;;;4981544;28;20210;-87
2023/10/02 06:20:36;;;;;;;21.23;9.37;;;;;;;;;;5029397;28;20178;-87
2023/10/02 06:23:45;;;;;;;21.10;9.50;;;;;;;;;;4981313;28;20206;-86
2023/10/02 06:26:58;;;;;;;18.03;8.73;;;;;;;;;;4970556;28;20532;-87
2023/10/02 06:30:03;;;;;;;19.03;8.80;;;;;;;;;;5040389;28;20187;-87
2023/10/02 06:33:08;;;;;;;20.10;10.50;;;;;;;;;;5028854;28;20179;-87
2023/10/02 06:36:12;;;;;;;21.03;9.63;;;;;;;;;;5028698;28;20249;-87
2023/10/02 06:39:21;;;;;;;17.50;8.83;;;;;;;;;;4981417;28;20528;-86
2023/10/02 06:42:25;;;;;;;16.67;8.80;;;;;;;;;;5017150;28;20182;-87
2023/10/02 06:45:30;;;;;;;19.13;10.03;;;;;;;;;;4993156;28;20524;-87
2023/10/02 06:48:34;;;;;;;24.33;11.13;;;;;;;;;;5040201;28;20224;-86
2023/10/02 06:51:38;;;;;;;18.50;9.43;;;;;;;;;;5029850;28;20185;-86
2023/10/02 06:54:44;;;;;;;15.37;8.43;;;;;;;;;;4981943;28;20182;-86
2023/10/02 06:57:52;;;;;;;19.07;9.50;;;;;;;;;;4993445;28;20209;-87
2023/10/02 07:01:01;;;;;;;16.67;9.13;;;;;;;;;;5040309;28;20178;-87
2023/10/02 07:04:12;;;;;;;15.80;8.03;;;;;;;;;;5028788;28;20218;-86
2023/10/02 07:07:30;;;;;;;17.27;9.00;;;;;;;;;;5039333;28;20222;-87
2023/10/02 07:10:42;;;;;;;17.20;9.47;;;;;;;;;;5028439;28;20183;-87
2023/10/02 07:13:56;;;;;;;17.27;8.97;;;;;;;;;;4981783;28;20175;-86
2023/10/02 07:17:11;;;;;;;16.23;8.83;;;;;;;;;;5017462;28;20226;-87
2023/10/02 07:20:20;;;;;;;18.27;9.80;;;;;;;;;;5040469;28;20182;-86
2023/10/02 07:24:33;;;;;;;19.40;9.97;;;;;;;;;;5029700;28;20218;-87
2023/10/02 07:27:45;;;;;;;19.30;10.33;;;;;;;;;;5018241;28;20237;-86
2023/10/02 07:34:26;;;;;;;17.63;9.37;;;;;;;;;;5022411;28;20194;-86
2023/10/02 07:37:39;;;;;;;24.67;9.33;;;;;;;;;;5032257;28;20226;-86
2023/10/02 07:40:48;;;;;;;24.63;9.60;;;;;;;;;;5018616;28;20191;-86
2023/10/02 07:44:07;;;;;;;22.47;10.83;;;;;;;;;;5018824;28;20218;-86
2023/10/02 07:47:21;;;;;;;24.03;11.97;;;;;;;;;;5029663;28;20710;-86
2023/10/02 07:50:33;;;;;;;23.07;12.37;;;;;;;;;;5005797;28;20194;-86
2023/10/02 07:54:16;;;;;;;26.73;10.40;;;;;;;;;;4998370;28;20539;-86
2023/10/02 07:57:57;;;;;;;29.30;10.30;;;;;;;;;;5015250;28;20225;-87
2023/10/02 08:02:23;;;;;;;18.80;10.27;;;;;;;;;;5012285;28;20194;-87
2023/10/02 08:06:52;;;;;;;21.67;10.50;;;;;;;;;;4992643;28;20181;-86
2023/10/02 08:10:00;;;;;;;27.90;12.73;;;;;;;;;;5041264;28;20181;-87
2023/10/02 08:13:11;;;;;;;22.40;11.83;;;;;;;;;;5030638;28;20197;-85
2023/10/02 08:16:22;;;;;;;21.70;10.80;;;;;;;;;;5018438;28;20186;-85
2023/10/02 08:19:28;;;;;;;23.17;11.47;;;;;;;;;;5031301;28;20658;-85
2023/10/02 08:22:44;;;;;;;30.47;11.40;;;;;;;;;;5041423;28;20186;-85
2023/10/02 08:26:02;;;;;;;26.67;14.13;;;;;;;;;;4996115;28;20185;-86
2023/10/02 08:29:09;;;;;;;29.10;17.47;;;;;;;;;;4992549;28;20217;-86
2023/10/02 08:32:28;;;;;;;25.37;12.50;;;;;;;;;;5037939;28;20189;-86
2023/10/02 08:35:52;;;;;;;29.00;14.13;;;;;;;;;;5030175;28;20563;-86
2023/10/02 08:38:59;;;;;;;27.43;13.00;;;;;;;;;;5026188;28;20291;-86
2023/10/02 08:42:10;;;;;;;31.03;14.50;;;;;;;;;;5026914;28;20185;-86
2023/10/02 08:45:24;;;;;;;32.10;17.10;;;;;;;;;;5017490;28;20224;-87
2023/10/02 08:48:31;;;;;;;29.03;14.47;;;;;;;;;;5026534;28;20221;-87
2023/10/02 08:51:38;;;;;;;24.80;13.27;;;;;;;;;;5038760;28;20186;-86
2023/10/02 08:54:46;;;;;;;25.33;13.80;;;;;;;;;;4994154;28;20181;-89
2023/10/02 08:57:55;;;;;;;26.17;12.43;;;;;;;;;;4999693;28;20228;-85
2023/10/02 09:01:17;;;;;;;28.00;12.90;;;;;;;;;;5035083;28;20189;-85
2023/10/02 09:10:58;;;;;;;25.05;12.93;;;;;;;;;;4996393;28;20196;-86
2023/10/02 09:14:21;;;;;;;25.20;13.15;;;;;;;;;;4996147;28;20187;-86
2023/10/02 09:17:44;;;;;;;25.42;12.90;;;;;;;;;;4993731;28;20226;-86
2023/10/02 09:20:56;;;;;;;23.40;12.50;;;;;;;;;;5043162;28;20195;-86
2023/10/02 09:24:02;;;;;;;24.73;12.85;;;;;;;;;;5034543;28;20221;-86
2023/10/02 09:27:23;;;;;;;24.27;13.10;;;;;;;;;;4997553;28;20241;-85
2023/10/02 09:33:39;;;;;;;22.30;12.40;;;;;;;;;;5001692;28;20546;-85
2023/10/02 09:36:52;;;;;;;26.67;12.23;;;;;;;;;;5005553;28;20204;-85
2023/10/02 09:39:57;;;;;;;26.02;12.85;;;;;;;;;;5050786;28;20189;-85
2023/10/02 09:43:08;;;;;;;23.13;10.88;;;;;;;;;;5004839;28;20185;-84
2023/10/02 09:46:21;;;;;;;24.08;12.38;;;;;;;;;;5003251;28;20668;-85
2023/10/02 09:49:31;;;;;;;29.90;13.77;;;;;;;;;;5003903;28;20643;-85
2023/10/02 09:52:39;;;;;;;21.88;11.80;;;;;;;;;;4986720;28;20198;-86
2023/10/02 09:55:57;;;;;;;21.48;12.13;;;;;;;;;;4997574;28;20178;-86
2023/10/02 09:59:16;;;;;;;24.10;12.48;;;;;;;;;;4998396;28;20190;-86
2023/10/02 10:05:46;;;;;;;26.13;12.70;;;;;;;;;;4997767;28;20219;-86
2023/10/02 10:12:54;;;;;;;24.02;12.60;;;;;;;;;;5033031;28;20195;-86
2023/10/02 10:16:19;;;;;;;21.45;12.43;;;;;;;;;;4987256;28;20201;-86
2023/10/02 10:19:26;;;;;;;23.92;12.60;;;;;;;;;;5033734;28;20189;-85
2023/10/02 10:22:39;;;;;;;26.23;12.75;;;;;;;;;;5001575;28;20194;-85
2023/10/02 10:25:50;;;;;;;21.38;11.57;;;;;;;;;;5000062;28;20213;-90
2023/10/02 10:28:54;;;;;;;20.77;12.43;;;;;;;;;;5042713;28;20237;-86
2023/10/02 10:32:16;;;;;;;21.48;11.98;;;;;;;;;;5031567;28;20189;-86
2023/10/02 10:35:30;;;;;;;19.90;11.45;;;;;;;;;;4993659;28;20190;-86
2023/10/02 10:38:36;;;;;;;21.70;12.30;;;;;;;;;;4993358;28;20225;-86
2023/10/02 10:41:57;;;;;;;19.02;10.93;;;;;;;;;;4992130;28;20186;-86
2023/10/02 10:45:09;;;;;;;21.25;12.20;;;;;;;;;;5028611;28;20582;-86
2023/10/02 10:48:24;;;;;;;19.52;11.20;;;;;;;;;;4981332;28;20214;-86
2023/10/02 10:51:33;;;;;;;17.88;10.50;;;;;;;;;;4993459;28;20190;-86
2023/10/02 10:54:41;;;;;;;22.15;11.68;;;;;;;;;;4995681;28;20182;-85
2023/10/02 10:57:51;;;;;;;19.92;11.43;;;;;;;;;;4995883;28;20226;-86
2023/10/02 11:00:58;;;;;;;18.95;11.18;;;;;;;;;;4996771;28;20190;-85
2023/10/02 11:04:02;;;;;;;21.67;11.32;;;;;;;;;;4996194;28;20261;-85
2023/10/02 11:07:25;;;;;;;19.35;11.02;;;;;;;;;;4995807;28;20233;-84
2023/10/02 11:10:30;;;;;;;20.52;10.80;;;;;;;;;;4996362;28;20255;-85
2023/10/02 11:16:56;;;;;;;19.98;11.15;;;;;;;;;;4996574;28;20223;-85
2023/10/02 11:20:07;;;;;;;22.38;11.13;;;;;;;;;;4996145;28;20253;-84
2023/10/02 11:23:11;;;;;;;20.67;11.35;;;;;;;;;;5042488;28;20196;-84
2023/10/02 11:26:21;;;;;;;21.00;11.43;;;;;;;;;;5041605;28;20711;-84
2023/10/02 11:29:26;;;;;;;22.60;12.00;;;;;;;;;;4994735;28;20216;-85
2023/10/02 11:32:53;;;;;;;22.30;11.10;;;;;;;;;;4995609;28;20182;-85
2023/10/02 11:35:58;;;;;;;20.98;11.32;;;;;;;;;;4995438;28;20191;-84
2023/10/02 11:39:08;;;;;;;21.40;11.23;;;;;;;;;;5041646;28;20188;-85
2023/10/02 11:42:12;;;;;;;31.92;12.13;;;;;;;;;;4994990;28;20196;-84
2023/10/02 11:45:16;;;;;;;22.42;11.65;;;;;;;;;;4994934;28;20224;-84
2023/10/02 11:48:20;;;;;;;20.48;10.85;;;;;;;;;;5031272;28;20227;-84
2023/10/02 11:51:30;;;;;;;22.70;11.73;;;;;;;;;;4994928;28;20182;-85
2023/10/02 11:54:39;;;;;;;20.17;10.80;;;;;;;;;;4995203;28;20193;-85
2023/10/02 11:57:45;;;;;;;26.73;12.27;;;;;;;;;;4995095;28;20229;-85
2023/10/02 12:00:53;;;;;;;23.20;11.85;;;;;;;;;;4994929;28;20193;-85
2023/10/02 12:03:57;;;;;;;20.42;10.95;;;;;;;;;;4994771;28;20191;-85
2023/10/02 12:07:01;;;;;;;19.52;10.98;;;;;;;;;;4995089;28;20227;-85
2023/10/02 12:10:06;;;;;;;20.60;11.38;;;;;;;;;;4994792;28;20652;-84
2023/10/02 12:13:10;;;;;;;20.00;11.07;;;;;;;;;;4995267;28;20190;-84
2023/10/02 12:16:14;;;;;;;21.30;12.18;;;;;;;;;;5040603;28;20194;-85
2023/10/02 12:19:18;;;;;;;20.63;10.95;;;;;;;;;;4982387;28;20192;-85
2023/10/02 12:22:22;;;;;;;23.08;11.98;;;;;;;;;;5041116;28;20189;-85
2023/10/02 12:25:27;;;;;;;21.38;11.07;;;;;;;;;;5041401;28;20221;-85
2023/10/02 12:28:32;;;;;;;21.58;11.80;;;;;;;;;;4994186;28;20230;-84
2023/10/02 12:31:36;;;;;;;19.63;11.32;;;;;;;;;;5040738;28;20193;-85
2023/10/02 12:34:40;;;;;;;19.00;11.60;;;;;;;;;;4994508;28;20181;-85
2023/10/02 12:37:45;;;;;;;30.13;12.40;;;;;;;;;;4994363;28;20726;-85
2023/10/02 12:40:51;;;;;;;26.98;12.88;;;;;;;;;;4994542;28;20191;-84
2023/10/02 12:43:58;;;;;;;20.98;12.50;;;;;;;;;;4994283;28;20186;-86
2023/10/02 12:47:02;;;;;;;28.55;13.43;;;;;;;;;;4994151;28;20221;-84
2023/10/02 12:50:10;;;;;;;22.48;13.02;;;;;;;;;;5029262;28;20189;-84
2023/10/02 12:53:14;;;;;;;22.58;12.35;;;;;;;;;;4994174;28;20190;-83
2023/10/02 12:56:22;;;;;;;21.08;12.52;;;;;;;;;;5028737;28;20182;-82
2023/10/02 12:59:27;;;;;;;21.83;12.52;;;;;;;;;;4993896;28;20197;-83
2023/10/02 13:02:32;;;;;;;23.98;12.40;;;;;;;;;;5040557;28;20194;-83
2023/10/02 13:05:36;;;;;;;24.30;12.57;;;;;;;;;;4996434;28;20583;-83
2023/10/02 13:08:45;;;;;;;22.58;13.15;;;;;;;;;;5043823;28;20221;-83
2023/10/02 13:11:48;;;;;;;26.65;13.48;;;;;;;;;;4997034;28;20194;-83
2023/10/02 13:14:54;;;;;;;20.90;12.20;;;;;;;;;;4996529;28;20655;-82
2023/10/02 13:17:59;;;;;;;25.33;14.18;;;;;;;;;;4996856;28;20600;-82
2023/10/02 13:21:09;;;;;;;22.85;13.00;;;;;;;;;;4996555;28;20185;-83
2023/10/02 13:24:15;;;;;;;25.55;14.30;;;;;;;;;;4996914;28;20198;-82
2023/10/02 13:27:18;;;;;;;26.15;14.50;;;;;;;;;;4997051;28;20225;-82
2023/10/02 13:30:25;;;;;;;23.15;13.27;;;;;;;;;;4996526;28;20189;-82
2023/10/02 13:33:30;;;;;;;27.75;14.50;;;;;;;;;;4985230;28;20185;-82
2023/10/02 13:36:35;;;;;;;24.35;13.80;;;;;;;;;;4997205;28;20185;-82
2023/10/02 13:39:39;;;;;;;25.20;14.43;;;;;;;;;;4997907;28;20192;-83
2023/10/02 13:42:43;;;;;;;29.90;14.48;;;;;;;;;;4985579;28;20185;-83
2023/10/02 13:45:47;;;;;;;22.98;13.25;;;;;;;;;;5043683;28;20210;-83
2023/10/02 13:48:52;;;;;;;29.05;14.57;;;;;;;;;;4997294;28;20229;-82
2023/10/02 13:51:57;;;;;;;30.23;15.40;;;;;;;;;;4997277;28;20198;-83
2023/10/02 13:55:18;;;;;;;26.15;14.55;;;;;;;;;;4997439;28;20189;-82
2023/10/02 13:58:23;;;;;;;27.10;14.75;;;;;;;;;;5043397;28;20229;-82
2023/10/02 14:01:30;;;;;;;29.33;15.10;;;;;;;;;;4996554;28;20192;-82
2023/10/02 14:04:34;;;;;;;25.23;14.35;;;;;;;;;;4997183;28;20192;-82
2023/10/02 14:07:39;;;;;;;26.83;14.50;;;;;;;;;;5043049;28;20216;-83
2023/10/02 14:10:47;;;;;;;26.05;14.85;;;;;;;;;;4996033;28;20190;-82
2023/10/02 14:13:53;;;;;;;26.52;13.90;;;;;;;;;;5042551;28;20586;-82
2023/10/02 14:16:58;;;;;;;24.80;14.60;;;;;;;;;;4995954;28;20224;-81
2023/10/02 14:20:06;;;;;;;26.73;14.02;;;;;;;;;;4973271;28;20241;-82
2023/10/02 14:23:10;;;;;;;27.75;14.02;;;;;;;;;;5042432;28;20193;-82
2023/10/02 14:26:14;;;;;;;25.13;13.70;;;;;;;;;;4995641;28;20217;-82
2023/10/02 14:29:19;;;;;;;24.85;13.95;;;;;;;;;;4996659;28;20698;-82
2023/10/02 14:32:23;;;;;;;27.60;13.93;;;;;;;;;;4996067;28;20186;-82
2023/10/02 14:35:28;;;;;;;28.55;14.20;;;;;;;;;;4984278;28;20553;-82
2023/10/02 14:38:32;;;;;;;24.00;13.65;;;;;;;;;;4995454;28;20229;-83
2023/10/02 14:41:37;;;;;;;23.95;13.63;;;;;;;;;;4996175;28;20194;-83
2023/10/02 14:44:41;;;;;;;26.08;13.60;;;;;;;;;;4996059;28;20188;-83
2023/10/02 14:47:45;;;;;;;25.38;13.80;;;;;;;;;;4995412;28;20222;-83
2023/10/02 14:50:54;;;;;;;25.13;12.55;;;;;;;;;;4995822;28;20186;-81
2023/10/02 14:54:02;;;;;;;23.75;13.38;;;;;;;;;;4995837;28;20192;-82
2023/10/02 14:57:08;;;;;;;28.02;14.07;;;;;;;;;;4983567;28;20238;-83
2023/10/02 15:00:14;;;;;;;26.13;14.15;;;;;;;;;;4983517;28;20191;-82
2023/10/02 15:03:18;;;;;;;24.38;13.40;;;;;;;;;;4995399;28;20188;-82
2023/10/02 15:06:24;;;;;;;25.55;13.85;;;;;;;;;;4995325;28;20215;-83
2023/10/02 15:09:30;;;;;;;27.80;14.30;;;;;;;;;;4995315;28;20680;-82
2023/10/02 15:12:34;;;;;;;22.92;13.20;;;;;;;;;;4995097;28;20191;-83
2023/10/02 15:15:39;;;;;;;27.40;13.55;;;;;;;;;;4994991;28;20685;-83
2023/10/02 15:18:46;;;;;;;23.60;12.82;;;;;;;;;;4994952;28;20219;-82
2023/10/02 15:21:50;;;;;;;25.20;13.18;;;;;;;;;;4983146;28;20200;-82
2023/10/02 15:24:55;;;;;;;23.05;13.25;;;;;;;;;;4995280;28;20190;-83
2023/10/02 15:28:00;;;;;;;24.10;12.55;;;;;;;;;;4994671;28;20250;-82
2023/10/02 15:31:05;;;;;;;24.85;13.40;;;;;;;;;;4994987;28;20190;-82
2023/10/02 15:34:10;;;;;;;25.00;13.20;;;;;;;;;;4995801;28;20203;-82
2023/10/02 15:37:15;;;;;;;26.30;12.98;;;;;;;;;;4994831;28;20217;-82
2023/10/02 15:40:23;;;;;;;25.88;13.82;;;;;;;;;;5042023;28;20573;-82
2023/10/02 15:43:28;;;;;;;27.15;13.20;;;;;;;;;;4995029;28;20189;-82
2023/10/02 15:46:33;;;;;;;27.58;13.43;;;;;;;;;;5041533;28;20225;-83
2023/10/02 15:49:38;;;;;;;25.60;13.90;;;;;;;;;;4994585;28;20195;-82
2023/10/02 15:52:47;;;;;;;25.02;12.93;;;;;;;;;;4994452;28;20668;-82
2023/10/02 15:55:52;;;;;;;22.50;12.20;;;;;;;;;;5028815;28;20192;-82
2023/10/02 15:58:56;;;;;;;25.45;12.85;;;;;;;;;;4994155;28;20222;-82
2023/10/02 16:02:00;;;;;;;27.53;13.27;;;;;;;;;;4994215;28;20205;-82
2023/10/02 16:05:06;;;;;;;27.93;13.40;;;;;;;;;;4994341;28;20192;-82
2023/10/02 16:08:10;;;;;;;30.57;13.83;;;;;;;;;;5028824;28;20219;-81
2023/10/02 16:11:19;;;;;;;30.80;12.93;;;;;;;;;;4993661;28;20198;-82
2023/10/02 16:14:23;;;;;;;24.73;12.60;;;;;;;;;;5040889;28;20184;-81
2023/10/02 16:17:28;;;;;;;29.17;12.47;;;;;;;;;;4993745;28;20223;-82
2023/10/02 16:20:35;;;;;;;32.73;11.87;;;;;;;;;;4994635;28;20196;-82
2023/10/02 16:23:40;;;;;;;28.80;12.67;;;;;;;;;;4994757;28;20187;-82
2023/10/02 16:26:45;;;;;;;33.23;13.83;;;;;;;;;;4994264;28;20244;-82
2023/10/02 16:29:50;;;;;;;29.50;11.27;;;;;;;;;;4993682;28;20206;-81
2023/10/02 16:32:54;;;;;;;26.53;12.53;;;;;;;;;;5039603;28;20186;-81
2023/10/02 16:35:58;;;;;;;26.97;12.83;;;;;;;;;;4993849;28;20187;-82
2023/10/02 16:39:03;;;;;;;30.20;12.43;;;;;;;;;;5040490;28;20211;-82
2023/10/02 16:42:07;;;;;;;29.27;12.50;;;;;;;;;;5040211;28;20185;-81
2023/10/02 16:45:15;;;;;;;35.03;12.87;;;;;;;;;;4994129;28;20181;-81
2023/10/02 16:48:20;;;;;;;31.87;12.83;;;;;;;;;;5029062;28;20216;-82
2023/10/02 16:51:24;;;;;;;28.73;12.77;;;;;;;;;;5040486;28;20197;-81
2023/10/02 16:54:28;;;;;;;32.73;12.90;;;;;;;;;;4994171;28;20205;-81
2023/10/02 16:57:32;;;;;;;28.67;12.47;;;;;;;;;;5028752;28;20217;-81
2023/10/02 17:00:36;;;;;;;31.33;12.70;;;;;;;;;;4994107;28;20181;-81
2023/10/02 17:03:40;;;;;;;31.00;12.80;;;;;;;;;;4993726;28;20187;-82
2023/10/02 17:06:44;;;;;;;27.93;12.73;;;;;;;;;;4993199;28;20212;-81
2023/10/02 17:09:49;;;;;;;24.63;11.90;;;;;;;;;;4993999;28;20197;-81
2023/10/02 17:12:58;;;;;;;29.07;13.27;;;;;;;;;;4993796;28;20185;-81
2023/10/02 17:16:01;;;;;;;31.83;13.17;;;;;;;;;;5039640;28;20658;-81
2023/10/02 17:19:06;;;;;;;31.73;12.63;;;;;;;;;;4993599;28;20186;-81
2023/10/02 17:22:10;;;;;;;29.43;12.30;;;;;;;;;;4993186;28;20194;-81
2023/10/02 17:25:25;;;;;;;29.57;13.17;;;;;;;;;;5039739;28;20551;-81
2023/10/02 17:28:30;;;;;;;29.40;13.07;;;;;;;;;;4993082;28;20230;-81
2023/10/02 17:31:34;;;;;;;28.33;12.17;;;;;;;;;;5039630;28;20657;-81
2023/10/02 17:34:38;;;;;;;24.90;11.73;;;;;;;;;;4993220;28;20670;-81
2023/10/02 17:37:42;;;;;;;26.80;12.27;;;;;;;;;;5039336;28;20713;-81
2023/10/02 17:40:46;;;;;;;29.77;13.30;;;;;;;;;;5039426;28;20658;-81
2023/10/02 17:43:52;;;;;;;27.33;12.47;;;;;;;;;;4993097;28;20190;-81
2023/10/02 17:46:56;;;;;;;27.70;12.73;;;;;;;;;;4992717;28;20237;-81
2023/10/02 17:50:03;;;;;;;26.17;11.83;;;;;;;;;;5040283;28;20546;-81
2023/10/02 17:53:08;;;;;;;28.17;12.63;;;;;;;;;;5043740;28;20197;-82
2023/10/02 17:56:12;;;;;;;29.97;12.03;;;;;;;;;;5043396;28;20189;-82
2023/10/02 17:59:16;;;;;;;35.83;13.30;;;;;;;;;;4995922;28;20662;-81
2023/10/02 18:02:21;;;;;;;27.83;13.57;;;;;;;;;;4996273;28;20193;-81
2023/10/02 18:05:26;;;;;;;31.47;12.97;;;;;;;;;;5031002;28;20185;-82
2023/10/02 18:08:30;;;;;;;34.00;13.43;;;;;;;;;;4995614;28;20578;-81
2023/10/02 18:11:35;;;;;;;24.40;12.17;;;;;;;;;;4996110;28;20189;-82
2023/10/02 18:14:39;;;;;;;27.33;12.83;;;;;;;;;;4996270;28;20666;-81
2023/10/02 18:17:43;;;;;;;30.53;12.60;;;;;;;;;;5042705;28;20225;-81
2023/10/02 18:20:47;;;;;;;31.70;12.97;;;;;;;;;;4995759;28;20590;-81
2023/10/02 18:23:52;;;;;;;25.83;12.30;;;;;;;;;;4995496;28;20662;-81
2023/10/02 18:26:56;;;;;;;32.53;13.03;;;;;;;;;;5042157;28;20229;-82
2023/10/02 18:30:01;;;;;;;30.00;12.23;;;;;;;;;;4983683;28;20185;-81
2023/10/02 18:33:05;;;;;;;30.03;12.60;;;;;;;;;;4983579;28;20182;-82
2023/10/02 18:36:09;;;;;;;35.63;14.47;;;;;;;;;;4995265;28;20188;-82
2023/10/02 18:39:15;;;;;;;33.60;15.97;;;;;;;;;;4983712;28;20184;-82
2023/10/02 18:42:20;;;;;;;29.27;14.47;;;;;;;;;;4995471;28;20661;-81
2023/10/02 18:45:24;;;;;;;34.37;14.80;;;;;;;;;;4995240;28;20189;-82
2023/10/02 18:48:28;;;;;;;31.33;14.37;;;;;;;;;;5041286;28;20504;-82
2023/10/02 18:51:34;;;;;;;29.77;14.33;;;;;;;;;;4995134;28;20657;-82
2023/10/02 18:54:39;;;;;;;31.30;14.30;;;;;;;;;;5041703;28;20193;-84
2023/10/02 18:57:44;;;;;;;26.97;13.37;;;;;;;;;;5041464;28;20287;-84
2023/10/02 19:00:48;;;;;;;31.60;15.83;;;;;;;;;;4995520;28;20189;-83
2023/10/02 19:03:53;;;;;;;38.57;19.37;;;;;;;;;;4983461;28;20189;-84
2023/10/02 19:06:56;;;;;;;31.57;16.30;;;;;;;;;;4995584;28;20249;-83